createdAt,value
2022-08-24T00:02:43.273Z,21.90
2022-08-24T00:07:48.910Z,21.90
2022-08-24T00:12:52.517Z,21.80
2022-08-24T00:17:56.071Z,21.80
2022-08-24T00:23:01.047Z,21.80
2022-08-24T00:28:05.268Z,21.70
2022-08-24T00:33:09.032Z,21.60
2022-08-24T00:38:14.477Z,21.50
2022-08-24T00:43:20.975Z,21.50
2022-08-24T00:48:28.384Z,21.50
2022-08-24T00:53:38.357Z,21.40
2022-08-24T00:58:46.019Z,21.40
2022-08-24T01:03:52.413Z,21.40
2022-08-24T01:09:01.451Z,21.30
2022-08-24T01:14:06.886Z,21.20
2022-08-24T01:19:18.228Z,21.20
2022-08-24T01:24:23.366Z,21.20
2022-08-24T01:29:31.406Z,21.10
2022-08-24T01:34:35.511Z,21.10
2022-08-24T01:39:43.672Z,21.00
2022-08-24T01:44:48.326Z,21.00
2022-08-24T01:49:52.627Z,20.90
2022-08-24T01:54:58.235Z,20.90
2022-08-24T02:00:02.448Z,20.90
2022-08-24T02:05:17.926Z,20.80
2022-08-24T02:10:23.839Z,20.80
2022-08-24T02:15:29.875Z,20.70
2022-08-24T02:20:34.091Z,20.70
2022-08-24T02:25:39.083Z,20.60
2022-08-24T02:30:42.772Z,20.60
2022-08-24T02:35:46.648Z,20.60
2022-08-24T02:40:52.086Z,20.60
2022-08-24T02:45:56.102Z,20.60
2022-08-24T02:51:00.158Z,20.50
2022-08-24T02:56:05.664Z,20.50
2022-08-24T03:01:17.653Z,20.40
2022-08-24T03:06:28.860Z,20.30
2022-08-24T03:11:34.019Z,20.30
2022-08-24T03:16:38.584Z,20.20
2022-08-24T03:21:43.061Z,20.20
2022-08-24T03:26:49.195Z,20.50
2022-08-24T03:31:52.932Z,20.10
2022-08-24T03:36:56.822Z,20.20
2022-08-24T03:42:01.805Z,20.10
2022-08-24T03:47:05.741Z,20.00
2022-08-24T03:52:09.534Z,20.00
2022-08-24T03:57:14.865Z,20.00
2022-08-24T04:02:18.978Z,20.00
2022-08-24T04:07:23.306Z,20.00
2022-08-24T04:12:29.083Z,20.00
2022-08-24T04:17:32.935Z,20.00
2022-08-24T04:22:37.487Z,20.00
2022-08-24T04:27:42.746Z,20.10
2022-08-24T04:32:46.760Z,20.10
2022-08-24T04:37:50.564Z,20.20
2022-08-24T04:42:55.697Z,20.20
2022-08-24T04:47:59.585Z,20.30
2022-08-24T04:53:05.391Z,20.40
2022-08-24T04:58:12.390Z,20.40
2022-08-24T05:03:16.636Z,20.50
2022-08-24T05:08:23.385Z,20.50
2022-08-24T05:13:28.582Z,20.60
2022-08-24T05:18:33.694Z,20.60
2022-08-24T05:23:38.105Z,20.60
2022-08-24T05:28:43.584Z,20.60
2022-08-24T05:33:48.142Z,20.60
2022-08-24T05:38:52.138Z,20.60
2022-08-24T05:43:57.360Z,20.60
2022-08-24T05:49:02.665Z,20.60
2022-08-24T05:54:06.594Z,20.60
2022-08-24T05:59:13.894Z,20.70
2022-08-24T06:04:17.504Z,20.80
2022-08-24T06:09:21.566Z,20.90
2022-08-24T06:14:27.260Z,21.00
2022-08-24T06:19:31.060Z,21.00
2022-08-24T06:24:57.750Z,21.10
2022-08-24T06:30:09.588Z,21.10
2022-08-24T06:35:18.187Z,21.20
2022-08-24T06:40:22.273Z,21.20
2022-08-24T06:45:27.545Z,21.30
2022-08-24T06:50:31.209Z,21.40
2022-08-24T06:55:35.239Z,21.50
2022-08-24T07:00:40.549Z,21.60
2022-08-24T07:05:51.623Z,21.80
2022-08-24T07:10:55.650Z,21.90
2022-08-24T07:16:01.437Z,22.00
2022-08-24T07:21:06.077Z,22.00
2022-08-24T07:26:21.005Z,22.10
2022-08-24T07:31:27.550Z,22.20
2022-08-24T07:36:32.714Z,22.20
2022-08-24T07:41:56.758Z,22.40
2022-08-24T07:47:27.125Z,22.60
2022-08-24T07:52:29.866Z,22.80
2022-08-24T07:57:33.742Z,22.90
2022-08-24T08:02:40.086Z,23.10
2022-08-24T08:07:46.777Z,23.30
2022-08-24T08:12:52.925Z,23.40
2022-08-24T08:17:58.170Z,23.60
2022-08-24T08:23:19.700Z,23.80
2022-08-24T08:28:33.068Z,23.90
2022-08-24T08:33:40.598Z,24.10
2022-08-24T08:38:45.102Z,24.40
2022-08-24T08:43:55.701Z,24.60
2022-08-24T08:49:11.383Z,24.90
2022-08-24T08:54:43.838Z,25.20
2022-08-24T09:00:01.651Z,25.50
2022-08-24T09:05:47.389Z,26.00
2022-08-24T09:10:58.064Z,26.40
2022-08-24T09:16:28.478Z,26.80
2022-08-24T09:21:54.309Z,27.40
2022-08-24T09:27:07.374Z,28.20
2022-08-24T09:32:34.964Z,28.90
2022-08-24T09:38:00.128Z,29.60
2022-08-24T09:43:35.112Z,30.40
2022-08-24T09:49:03.727Z,31.10
2022-08-24T09:54:41.114Z,31.70
2022-08-24T09:59:59.456Z,32.10
2022-08-24T10:05:13.895Z,32.50
2022-08-24T10:10:33.389Z,32.30
2022-08-24T10:15:47.450Z,31.80
2022-08-24T10:21:05.544Z,31.50
2022-08-24T10:26:21.088Z,31.60
2022-08-24T10:31:32.332Z,32.40
2022-08-24T10:37:17.871Z,33.40
2022-08-24T10:43:12.824Z,34.20
2022-08-24T10:48:43.309Z,34.30
2022-08-24T10:53:51.014Z,34.00
2022-08-24T10:59:03.575Z,33.90
2022-08-24T11:04:11.735Z,33.90
2022-08-24T11:09:19.758Z,33.50
2022-08-24T11:14:29.310Z,33.20
2022-08-24T11:19:36.401Z,32.90
2022-08-24T11:24:43.571Z,33.10
2022-08-24T11:30:00.549Z,34.00
2022-08-24T11:35:09.883Z,34.70
2022-08-24T11:40:14.542Z,35.30
2022-08-24T11:45:25.890Z,35.80
2022-08-24T11:50:37.018Z,35.60
2022-08-24T11:55:51.939Z,35.90
2022-08-24T12:01:06.668Z,36.40
2022-08-24T12:06:32.319Z,36.80
2022-08-24T12:11:44.368Z,36.50
2022-08-24T12:16:55.199Z,36.50
2022-08-24T12:22:04.081Z,36.60
2022-08-24T12:27:11.796Z,36.90
2022-08-24T12:32:20.143Z,37.50
2022-08-24T12:37:31.754Z,37.80
2022-08-24T12:42:42.150Z,37.60
2022-08-24T12:47:51.576Z,37.30
2022-08-24T12:53:22.487Z,37.30
2022-08-24T12:58:54.464Z,37.20
2022-08-24T13:04:13.757Z,37.50
2022-08-24T13:09:33.098Z,38.00
2022-08-24T13:14:36.826Z,38.30
2022-08-24T13:19:44.220Z,38.50
2022-08-24T13:25:05.010Z,38.60
2022-08-24T13:30:22.666Z,38.60
2022-08-24T13:35:55.458Z,38.00
2022-08-24T13:41:06.578Z,37.50
2022-08-24T13:46:19.413Z,37.60
2022-08-24T13:51:36.061Z,37.60
2022-08-24T13:56:56.047Z,37.20
2022-08-24T14:02:08.949Z,36.50
2022-08-24T14:07:19.901Z,35.70
2022-08-24T14:12:50.120Z,35.20
2022-08-24T14:18:07.534Z,35.00
2022-08-24T14:23:25.258Z,34.90
2022-08-24T14:28:40.328Z,35.30
2022-08-24T14:33:56.457Z,35.70
2022-08-24T14:39:10.926Z,35.20
2022-08-24T14:44:36.953Z,35.10
2022-08-24T14:49:52.753Z,34.90
2022-08-24T14:55:08.026Z,34.70
2022-08-24T15:00:16.460Z,34.30
2022-08-24T15:05:25.663Z,34.00
2022-08-24T15:10:39.186Z,33.60
2022-08-24T15:15:52.386Z,33.10
2022-08-24T15:21:06.945Z,32.80
2022-08-24T15:26:17.273Z,32.50
2022-08-24T15:31:26.071Z,32.20
2022-08-24T15:36:30.297Z,32.10
2022-08-24T15:41:36.675Z,32.10
2022-08-24T15:46:45.798Z,32.00
2022-08-24T15:51:53.267Z,31.90
2022-08-24T15:57:00.070Z,31.80
2022-08-24T16:02:30.497Z,31.70
2022-08-24T16:07:56.162Z,31.50
2022-08-24T16:13:08.968Z,31.40
2022-08-24T16:18:14.515Z,31.20
2022-08-24T16:23:25.750Z,31.10
2022-08-24T16:28:37.369Z,31.00
2022-08-24T16:33:45.696Z,31.00
2022-08-24T16:38:51.858Z,30.90
2022-08-24T16:43:55.442Z,30.90
2022-08-24T16:49:00.372Z,30.80
2022-08-24T16:54:03.972Z,30.70
2022-08-24T16:59:07.750Z,30.60
2022-08-24T17:04:12.672Z,30.60
2022-08-24T17:09:16.245Z,30.60
2022-08-24T17:14:20.157Z,30.50
2022-08-24T17:19:25.257Z,30.50
2022-08-24T17:24:29.482Z,30.50
2022-08-24T17:29:33.333Z,30.40
2022-08-24T17:34:38.782Z,30.40
2022-08-24T17:39:42.390Z,30.30
2022-08-24T17:44:46.139Z,30.20
2022-08-24T17:49:51.688Z,30.20
2022-08-24T17:54:55.789Z,29.90
2022-08-24T17:59:59.577Z,30.00
2022-08-24T18:05:05.035Z,29.90
2022-08-24T18:10:11.991Z,29.80
2022-08-24T18:15:15.763Z,29.70
2022-08-24T18:20:26.033Z,29.60
2022-08-24T18:25:30.345Z,29.50
2022-08-24T18:30:34.141Z,29.40
2022-08-24T18:35:39.361Z,29.30
2022-08-24T18:40:52.369Z,29.30
2022-08-24T18:45:56.923Z,29.20
2022-08-24T18:51:03.118Z,29.10
2022-08-24T18:56:11.802Z,28.90
2022-08-24T19:01:16.510Z,28.80
2022-08-24T19:06:21.589Z,28.60
2022-08-24T19:11:25.449Z,28.50
2022-08-24T19:16:29.459Z,28.30
2022-08-24T19:21:37.593Z,28.10
2022-08-24T19:26:41.289Z,27.90
2022-08-24T19:31:44.980Z,27.80
2022-08-24T19:36:50.784Z,27.60
2022-08-24T19:41:55.053Z,27.50
2022-08-24T19:46:59.256Z,27.40
2022-08-24T19:52:05.237Z,27.30
2022-08-24T19:57:37.654Z,27.20
2022-08-24T20:02:41.343Z,26.90
2022-08-24T20:07:47.374Z,26.80
2022-08-24T20:12:53.054Z,26.60
2022-08-24T20:17:59.153Z,26.40
2022-08-24T20:23:06.112Z,26.30
2022-08-24T20:33:35.581Z,25.90
2022-08-24T20:38:39.137Z,25.70
2022-08-24T20:43:45.074Z,25.60
2022-08-24T20:48:55.337Z,25.50
2022-08-24T20:54:00.116Z,25.40
2022-08-24T20:59:09.028Z,25.30
2022-08-24T21:04:13.029Z,25.20
2022-08-24T21:09:16.794Z,25.10
2022-08-24T21:14:21.868Z,25.10
2022-08-24T21:19:25.456Z,25.00
2022-08-24T21:24:29.234Z,24.90
2022-08-24T21:29:34.377Z,24.90
2022-08-24T21:34:43.741Z,24.90
2022-08-24T21:39:48.638Z,24.80
2022-08-24T21:44:54.016Z,24.70
2022-08-24T21:49:58.152Z,24.70
2022-08-24T21:55:01.847Z,24.70
2022-08-24T22:00:09.100Z,24.70
2022-08-24T22:05:12.808Z,24.60
2022-08-24T22:10:16.515Z,24.50
2022-08-24T22:15:23.421Z,24.40
2022-08-24T22:20:27.441Z,24.40
2022-08-24T22:25:31.175Z,24.40
2022-08-24T22:30:36.229Z,24.40
2022-08-24T22:35:44.983Z,24.40
2022-08-24T22:40:54.851Z,24.30
2022-08-24T22:45:59.896Z,24.20
2022-08-24T22:51:03.574Z,24.20
2022-08-24T22:56:15.861Z,24.20
2022-08-24T23:01:22.498Z,24.20
2022-08-24T23:06:26.843Z,24.10
2022-08-24T23:11:32.264Z,24.00
2022-08-24T23:16:39.356Z,23.90
2022-08-24T23:21:43.293Z,23.90
2022-08-24T23:26:46.960Z,23.90
2022-08-24T23:31:53.608Z,23.80
2022-08-24T23:36:57.299Z,23.80
2022-08-24T23:42:01.022Z,23.70
2022-08-24T23:47:06.830Z,23.70
2022-08-24T23:52:26.237Z,23.70
2022-08-24T23:57:41.712Z,23.70
